createdAt,value
2022-07-26T00:00:48.234Z,10.90
2022-07-26T00:03:15.194Z,12.50
2022-07-26T00:05:43.602Z,10.02
2022-07-26T00:08:10.824Z,11.07
2022-07-26T00:10:44.180Z,11.27
2022-07-26T00:13:11.872Z,9.80
2022-07-26T00:15:39.563Z,9.68
2022-07-26T00:18:11.872Z,9.48
2022-07-26T00:20:39.376Z,8.93
2022-07-26T00:23:06.490Z,8.45
2022-07-26T00:25:33.461Z,7.70
2022-07-26T00:28:00.623Z,9.13
2022-07-26T00:30:28.768Z,6.90
2022-07-26T00:32:55.799Z,7.72
2022-07-26T00:35:23.289Z,7.82
2022-07-26T00:37:50.264Z,7.78
2022-07-26T00:40:17.719Z,7.50
2022-07-26T00:42:44.953Z,7.32
2022-07-26T00:45:12.797Z,8.88
2022-07-26T00:47:39.702Z,5.90
2022-07-26T00:50:09.215Z,7.35
2022-07-26T00:52:35.990Z,5.72
2022-07-26T00:55:04.604Z,6.97
2022-07-26T00:57:31.484Z,6.22
2022-07-26T01:00:01.136Z,7.60
2022-07-26T01:02:28.006Z,6.25
2022-07-26T01:04:54.816Z,7.93
2022-07-26T01:07:22.661Z,5.93
2022-07-26T01:09:49.961Z,8.88
2022-07-26T01:12:16.870Z,7.47
2022-07-26T01:14:44.900Z,10.25
2022-07-26T01:17:13.122Z,8.80
2022-07-26T01:19:40.366Z,7.75
2022-07-26T01:22:12.450Z,8.05
2022-07-26T01:24:41.125Z,4.65
2022-07-26T01:27:08.134Z,8.88
2022-07-26T01:29:36.128Z,9.35
2022-07-26T01:32:05.098Z,8.18
2022-07-26T01:34:32.011Z,7.72
2022-07-26T01:36:58.738Z,6.70
2022-07-26T01:39:25.550Z,7.22
2022-07-26T01:41:53.929Z,8.07
2022-07-26T01:44:20.734Z,4.95
2022-07-26T01:46:47.494Z,6.63
2022-07-26T01:49:15.019Z,4.22
2022-07-26T01:51:41.754Z,7.70
2022-07-26T01:54:08.939Z,5.50
2022-07-26T01:56:35.895Z,9.70
2022-07-26T01:59:03.078Z,8.25
2022-07-26T02:01:39.668Z,10.32
2022-07-26T02:04:08.883Z,6.63
2022-07-26T02:06:37.167Z,9.77
2022-07-26T02:09:06.476Z,12.13
2022-07-26T02:11:34.607Z,9.70
2022-07-26T02:17:19.702Z,6.78
2022-07-26T02:19:46.700Z,7.28
2022-07-26T02:22:14.383Z,7.75
2022-07-26T02:24:41.539Z,5.55
2022-07-26T02:27:09.937Z,4.97
2022-07-26T02:29:55.230Z,5.07
2022-07-26T02:32:22.113Z,4.68
2022-07-26T02:34:48.898Z,7.15
2022-07-26T02:37:15.683Z,9.20
2022-07-26T02:39:42.611Z,9.50
2022-07-26T02:42:09.564Z,6.13
2022-07-26T02:44:36.667Z,11.38
2022-07-26T02:47:03.558Z,9.23
2022-07-26T02:49:30.497Z,7.43
2022-07-26T02:51:57.781Z,7.32
2022-07-26T02:54:24.811Z,5.93
2022-07-26T02:56:51.560Z,8.32
2022-07-26T02:59:18.364Z,6.30
2022-07-26T03:01:45.330Z,7.63
2022-07-26T03:04:12.149Z,7.78
2022-07-26T03:06:39.046Z,6.72
2022-07-26T03:09:05.895Z,5.03
2022-07-26T03:11:32.965Z,6.15
2022-07-26T03:13:59.956Z,9.68
2022-07-26T03:16:29.586Z,8.02
2022-07-26T03:18:57.258Z,9.15
2022-07-26T03:21:24.610Z,8.68
2022-07-26T03:23:51.395Z,9.50
2022-07-26T03:26:18.186Z,8.15
2022-07-26T03:28:44.949Z,7.75
2022-07-26T03:31:12.955Z,8.13
2022-07-26T03:33:41.036Z,6.70
2022-07-26T03:36:11.566Z,10.52
2022-07-26T03:38:39.675Z,5.13
2022-07-26T03:41:06.739Z,9.15
2022-07-26T03:43:33.594Z,7.10
2022-07-26T03:46:03.188Z,6.60
2022-07-26T03:48:31.114Z,5.65
2022-07-26T03:50:57.996Z,9.13
2022-07-26T03:53:24.951Z,10.23
2022-07-26T03:56:10.843Z,6.65
2022-07-26T03:58:38.175Z,6.07
2022-07-26T04:01:05.057Z,9.77
2022-07-26T04:03:31.920Z,6.72
2022-07-26T04:05:58.628Z,10.05
2022-07-26T04:08:26.179Z,7.05
2022-07-26T04:10:52.924Z,7.43
2022-07-26T04:13:20.721Z,9.20
2022-07-26T04:15:47.621Z,4.28
2022-07-26T04:18:14.392Z,7.82
2022-07-26T04:20:42.028Z,9.40
2022-07-26T04:23:10.674Z,10.05
2022-07-26T04:25:41.242Z,9.45
2022-07-26T04:28:09.426Z,7.63
2022-07-26T04:30:36.838Z,12.95
2022-07-26T04:33:03.953Z,4.45
2022-07-26T04:35:30.876Z,10.40
2022-07-26T04:37:57.718Z,3.88
2022-07-26T04:40:25.684Z,6.50
2022-07-26T04:42:52.696Z,5.93
2022-07-26T04:45:19.852Z,7.43
2022-07-26T04:47:51.033Z,9.63
2022-07-26T04:50:19.802Z,7.70
2022-07-26T04:52:47.106Z,5.32
2022-07-26T04:55:14.066Z,5.00
2022-07-26T04:57:41.060Z,5.55
2022-07-26T05:00:26.463Z,7.28
2022-07-26T05:02:56.044Z,6.38
2022-07-26T05:05:24.924Z,6.45
2022-07-26T05:07:54.278Z,6.07
2022-07-26T05:10:22.612Z,7.03
2022-07-26T05:12:49.641Z,3.13
2022-07-26T05:15:16.639Z,5.28
2022-07-26T05:17:43.802Z,4.65
2022-07-26T05:20:15.489Z,2.83
2022-07-26T05:22:42.805Z,6.38
2022-07-26T05:25:10.430Z,5.95
2022-07-26T05:27:37.316Z,4.68
2022-07-26T05:30:04.215Z,3.30
2022-07-26T05:32:31.031Z,4.95
2022-07-26T05:34:57.723Z,2.95
2022-07-26T05:37:24.413Z,5.80
2022-07-26T05:39:51.209Z,5.60
2022-07-26T05:42:18.069Z,3.63
2022-07-26T05:44:44.808Z,4.32
2022-07-26T05:47:11.976Z,5.20
2022-07-26T05:49:40.035Z,5.40
2022-07-26T05:52:08.699Z,4.53
2022-07-26T05:54:35.792Z,8.48
2022-07-26T05:57:02.815Z,3.75
2022-07-26T05:59:29.692Z,2.90
2022-07-26T06:01:56.805Z,6.85
2022-07-26T06:04:26.577Z,3.42
2022-07-26T06:06:54.797Z,3.28
2022-07-26T06:09:24.493Z,3.92
2022-07-26T06:11:52.312Z,4.03
2022-07-26T06:14:20.315Z,2.92
2022-07-26T06:16:47.633Z,3.85
2022-07-26T06:19:14.712Z,5.63
2022-07-26T06:21:42.638Z,2.63
2022-07-26T06:24:09.797Z,3.60
2022-07-26T06:26:37.099Z,2.70
2022-07-26T06:29:04.098Z,4.18
2022-07-26T06:31:31.163Z,2.75
2022-07-26T06:33:57.913Z,2.50
2022-07-26T06:36:28.661Z,3.42
2022-07-26T06:38:57.786Z,3.47
2022-07-26T06:41:24.615Z,3.17
2022-07-26T06:43:51.530Z,3.80
2022-07-26T06:46:19.387Z,4.78
2022-07-26T06:48:47.678Z,5.90
2022-07-26T06:51:19.843Z,4.15
2022-07-26T06:53:46.742Z,2.03
2022-07-26T06:56:14.988Z,2.78
2022-07-26T06:58:42.621Z,2.60
2022-07-26T07:01:09.730Z,4.10
2022-07-26T07:03:36.799Z,1.65
2022-07-26T07:06:03.860Z,7.13
2022-07-26T07:08:30.805Z,3.28
2022-07-26T07:10:58.682Z,4.28
2022-07-26T07:13:25.470Z,3.00
2022-07-26T07:15:52.256Z,3.22
2022-07-26T07:18:20.477Z,3.38
2022-07-26T07:20:47.717Z,2.75
2022-07-26T07:23:14.387Z,3.17
2022-07-26T07:25:41.128Z,4.32
2022-07-26T07:28:11.531Z,2.47
2022-07-26T07:30:38.223Z,4.65
2022-07-26T07:33:05.209Z,4.53
2022-07-26T07:35:32.905Z,4.07
2022-07-26T07:38:00.309Z,3.83
2022-07-26T07:40:27.356Z,2.40
2022-07-26T07:42:57.275Z,1.42
2022-07-26T07:45:24.074Z,4.65
2022-07-26T07:47:50.911Z,3.70
2022-07-26T07:50:18.201Z,3.13
2022-07-26T07:52:45.010Z,5.57
2022-07-26T07:55:36.074Z,2.13
2022-07-26T07:57:58.479Z,3.00
2022-07-26T08:00:27.102Z,1.50
2022-07-26T08:02:54.877Z,3.05
2022-07-26T08:05:21.826Z,1.48
2022-07-26T08:07:49.716Z,1.85
2022-07-26T08:10:19.642Z,2.13
2022-07-26T08:12:46.468Z,1.95
2022-07-26T08:15:19.455Z,1.90
2022-07-26T08:17:53.738Z,1.95
2022-07-26T08:20:22.952Z,3.30
2022-07-26T08:22:51.897Z,3.63
2022-07-26T08:25:18.755Z,2.92
2022-07-26T08:28:00.465Z,3.92
2022-07-26T08:30:30.585Z,4.80
2022-07-26T08:32:57.533Z,1.95
2022-07-26T08:35:24.395Z,2.55
2022-07-26T08:37:51.875Z,3.30
2022-07-26T08:40:18.604Z,2.13
2022-07-26T08:42:55.713Z,3.15
2022-07-26T08:45:27.597Z,1.55
2022-07-26T08:48:16.850Z,2.22
2022-07-26T08:50:42.280Z,2.35
2022-07-26T08:53:12.021Z,1.27
2022-07-26T08:56:05.347Z,1.73
2022-07-26T08:58:25.907Z,1.83
2022-07-26T09:01:12.840Z,2.15
2022-07-26T09:03:40.684Z,1.95
2022-07-26T09:06:22.315Z,2.72
2022-07-26T09:08:53.536Z,1.35
2022-07-26T09:11:30.859Z,2.67
2022-07-26T09:14:03.910Z,3.63
2022-07-26T09:16:32.603Z,1.00
2022-07-26T09:19:21.367Z,3.30
2022-07-26T09:21:48.463Z,1.25
2022-07-26T09:24:42.121Z,3.45
2022-07-26T09:27:14.745Z,4.00
2022-07-26T09:29:50.954Z,3.00
2022-07-26T09:32:24.632Z,4.38
2022-07-26T09:35:36.997Z,2.28
2022-07-26T09:37:58.499Z,1.95
2022-07-26T09:40:32.445Z,2.67
2022-07-26T09:43:06.820Z,2.97
2022-07-26T09:45:37.155Z,3.03
2022-07-26T09:48:04.367Z,3.17
2022-07-26T09:50:32.756Z,1.80
2022-07-26T09:53:08.774Z,2.75
2022-07-26T09:55:53.515Z,1.45
2022-07-26T09:58:20.330Z,2.63
2022-07-26T10:00:47.459Z,1.80
2022-07-26T10:03:14.487Z,3.20
2022-07-26T10:05:41.748Z,2.20
2022-07-26T10:08:09.140Z,1.80
2022-07-26T10:10:49.605Z,2.53
2022-07-26T10:13:17.051Z,3.00
2022-07-26T10:15:46.906Z,1.75
2022-07-26T10:18:35.692Z,1.77
2022-07-26T10:21:21.713Z,1.73
2022-07-26T10:24:03.039Z,1.60
2022-07-26T10:26:32.838Z,1.70
2022-07-26T10:29:17.970Z,5.32
2022-07-26T10:31:45.257Z,2.40
2022-07-26T10:34:31.663Z,3.33
2022-07-26T10:37:03.112Z,2.65
2022-07-26T10:39:29.934Z,1.42
2022-07-26T10:42:03.228Z,2.58
2022-07-26T10:44:35.023Z,2.30
2022-07-26T10:47:03.366Z,3.78
2022-07-26T10:49:55.584Z,3.03
2022-07-26T10:52:24.913Z,2.08
2022-07-26T10:55:00.475Z,1.88
2022-07-26T10:57:28.282Z,1.17
2022-07-26T10:59:58.832Z,5.35
2022-07-26T11:02:35.861Z,1.83
2022-07-26T11:05:13.083Z,1.90
2022-07-26T11:07:59.009Z,2.67
2022-07-26T11:10:32.294Z,1.45
2022-07-26T11:13:05.271Z,3.83
2022-07-26T11:15:32.570Z,2.13
2022-07-26T11:18:09.616Z,3.60
2022-07-26T11:20:36.699Z,2.83
2022-07-26T11:23:04.003Z,1.45
2022-07-26T11:25:30.961Z,2.33
2022-07-26T11:28:07.145Z,2.15
2022-07-26T11:30:34.777Z,1.95
2022-07-26T11:33:01.464Z,2.08
2022-07-26T11:35:29.936Z,2.33
2022-07-26T11:38:07.861Z,2.15
2022-07-26T11:40:46.384Z,2.50
2022-07-26T11:43:13.301Z,2.83
2022-07-26T11:45:40.669Z,5.70
2022-07-26T11:48:07.611Z,2.50
2022-07-26T11:50:34.474Z,3.08
2022-07-26T11:53:01.240Z,3.00
2022-07-26T11:55:31.340Z,2.67
2022-07-26T11:58:05.743Z,2.90
2022-07-26T12:00:32.651Z,7.07
2022-07-26T12:02:59.376Z,3.88
2022-07-26T12:05:27.589Z,3.92
2022-07-26T12:07:54.902Z,2.30
2022-07-26T12:10:21.741Z,2.10
2022-07-26T12:12:48.536Z,3.25
2022-07-26T12:15:15.766Z,2.38
2022-07-26T12:17:58.830Z,2.50
2022-07-26T12:20:28.474Z,2.03
2022-07-26T12:22:58.300Z,1.88
2022-07-26T12:25:27.052Z,2.47
2022-07-26T12:27:54.151Z,3.53
2022-07-26T12:30:22.734Z,2.42
2022-07-26T12:32:52.039Z,3.42
2022-07-26T12:35:29.470Z,2.92
2022-07-26T12:37:57.183Z,2.90
2022-07-26T12:40:27.961Z,4.45
2022-07-26T12:43:02.469Z,2.08
2022-07-26T12:45:34.786Z,3.15
2022-07-26T12:48:03.847Z,2.15
2022-07-26T12:50:34.069Z,2.22
2022-07-26T12:53:03.708Z,3.33
2022-07-26T12:55:30.658Z,4.00
2022-07-26T12:57:57.528Z,3.90
2022-07-26T13:00:24.811Z,1.65
2022-07-26T13:02:55.283Z,2.65
2022-07-26T13:05:22.631Z,1.90
2022-07-26T13:07:51.554Z,2.67
2022-07-26T13:10:35.255Z,14.65
2022-07-26T13:13:02.903Z,2.80
2022-07-26T13:15:37.293Z,2.35
2022-07-26T13:18:08.597Z,2.28
2022-07-26T13:20:38.790Z,5.72
2022-07-26T13:23:11.560Z,1.88
2022-07-26T13:25:40.338Z,1.30
2022-07-26T13:28:08.436Z,4.47
2022-07-26T13:30:38.325Z,1.65
2022-07-26T13:33:05.415Z,1.30
2022-07-26T13:35:32.407Z,1.48
2022-07-26T13:37:59.133Z,1.98
2022-07-26T13:40:31.224Z,1.50
2022-07-26T13:42:58.872Z,5.43
2022-07-26T13:45:27.767Z,5.07
2022-07-26T13:47:59.175Z,4.30
2022-07-26T13:50:27.726Z,4.72
2022-07-26T13:52:56.173Z,3.13
2022-07-26T13:55:23.216Z,3.92
2022-07-26T13:57:56.130Z,2.78
2022-07-26T14:00:29.095Z,7.82
2022-07-26T14:02:58.333Z,2.15
2022-07-26T14:05:25.902Z,2.17
2022-07-26T14:07:53.172Z,3.20
2022-07-26T14:10:21.057Z,4.00
2022-07-26T14:12:48.857Z,4.13
2022-07-26T14:15:21.432Z,3.47
2022-07-26T14:17:49.197Z,4.22
2022-07-26T14:20:17.195Z,3.70
2022-07-26T14:22:44.512Z,3.58
2022-07-26T14:25:11.785Z,6.22
2022-07-26T14:27:38.729Z,2.20
2022-07-26T14:30:06.207Z,7.57
2022-07-26T14:32:32.985Z,3.80
2022-07-26T14:34:59.704Z,2.72
2022-07-26T14:37:43.117Z,2.70
2022-07-26T14:40:15.579Z,3.15
2022-07-26T14:42:43.151Z,2.38
2022-07-26T14:45:10.345Z,2.33
2022-07-26T14:47:37.760Z,2.38
2022-07-26T14:50:07.556Z,3.13
2022-07-26T14:52:38.596Z,4.32
2022-07-26T14:55:06.154Z,3.17
2022-07-26T14:57:33.135Z,3.20
2022-07-26T15:00:01.929Z,2.35
2022-07-26T15:02:28.841Z,2.67
2022-07-26T15:04:56.493Z,2.58
2022-07-26T15:07:23.210Z,5.80
2022-07-26T15:09:49.985Z,2.33
2022-07-26T15:12:16.746Z,1.13
2022-07-26T15:14:46.022Z,1.42
2022-07-26T15:17:13.431Z,2.70
2022-07-26T15:19:40.603Z,3.42
2022-07-26T15:22:07.967Z,2.08
2022-07-26T15:24:39.599Z,3.58
2022-07-26T15:27:07.097Z,3.10
2022-07-26T15:29:34.360Z,1.40
2022-07-26T15:32:01.672Z,2.92
2022-07-26T15:34:28.616Z,6.07
2022-07-26T15:36:55.382Z,2.42
2022-07-26T15:39:22.113Z,2.72
2022-07-26T15:41:49.892Z,2.20
2022-07-26T15:44:18.782Z,1.67
2022-07-26T15:46:48.185Z,1.77
2022-07-26T15:49:16.738Z,3.50
2022-07-26T15:51:43.700Z,2.78
2022-07-26T15:54:13.037Z,2.05
2022-07-26T15:56:40.323Z,2.10
2022-07-26T15:59:09.540Z,2.20
2022-07-26T16:01:36.905Z,2.85
2022-07-26T16:04:05.218Z,1.45
2022-07-26T16:06:33.348Z,1.33
2022-07-26T16:09:16.638Z,3.95
2022-07-26T16:11:44.918Z,1.75
2022-07-26T16:14:11.805Z,4.25
2022-07-26T16:16:38.652Z,5.80
2022-07-26T16:19:05.444Z,1.23
2022-07-26T16:21:32.466Z,2.40
2022-07-26T16:24:04.364Z,2.13
2022-07-26T16:26:33.117Z,3.08
2022-07-26T16:29:00.678Z,3.30
2022-07-26T16:31:27.771Z,2.47
2022-07-26T16:33:54.601Z,2.75
2022-07-26T16:36:21.344Z,2.25
2022-07-26T16:38:48.078Z,3.78
2022-07-26T16:41:14.864Z,2.15
2022-07-26T16:43:41.720Z,4.38
2022-07-26T16:46:08.643Z,3.15
2022-07-26T16:48:35.428Z,2.40
2022-07-26T16:51:02.390Z,2.92
2022-07-26T16:53:29.313Z,2.65
2022-07-26T16:55:56.077Z,5.05
2022-07-26T16:58:22.835Z,5.68
2022-07-26T17:00:50.088Z,3.05
2022-07-26T17:03:17.204Z,2.72
2022-07-26T17:05:46.203Z,2.78
2022-07-26T17:08:13.126Z,1.30
2022-07-26T17:10:39.959Z,2.95
2022-07-26T17:13:07.343Z,9.30
2022-07-26T17:15:34.368Z,4.03
2022-07-26T17:18:01.337Z,2.22
2022-07-26T17:20:28.737Z,6.47
2022-07-26T17:22:56.629Z,2.88
2022-07-26T17:25:23.478Z,2.65
2022-07-26T17:27:50.896Z,1.42
2022-07-26T17:30:17.973Z,2.85
2022-07-26T17:32:44.874Z,2.25
2022-07-26T17:35:11.825Z,2.35
2022-07-26T17:37:38.686Z,2.25
2022-07-26T17:40:08.426Z,1.23
2022-07-26T17:42:37.043Z,1.42
2022-07-26T17:45:05.494Z,0.70
2022-07-26T17:47:32.500Z,1.77
2022-07-26T17:52:48.777Z,1.33
2022-07-26T17:55:15.758Z,1.67
2022-07-26T17:57:42.539Z,3.13
2022-07-26T18:00:10.623Z,0.47
2022-07-26T18:02:37.974Z,1.25
2022-07-26T18:05:04.922Z,0.75
2022-07-26T18:07:31.835Z,1.50
2022-07-26T18:09:58.648Z,2.58
2022-07-26T18:12:25.427Z,0.60
2022-07-26T18:14:52.175Z,2.85
2022-07-26T18:17:19.013Z,1.35
2022-07-26T18:19:45.815Z,3.00
2022-07-26T18:22:12.602Z,2.30
2022-07-26T18:24:39.447Z,2.70
2022-07-26T18:27:06.404Z,1.58
2022-07-26T18:29:33.211Z,0.98
2022-07-26T18:32:02.038Z,5.50
2022-07-26T18:34:29.051Z,8.60
2022-07-26T18:36:55.898Z,6.90
2022-07-26T18:39:22.874Z,2.35
2022-07-26T18:41:49.838Z,2.45
2022-07-26T18:44:16.762Z,4.10
2022-07-26T18:46:43.595Z,2.63
2022-07-26T18:49:16.112Z,5.07
2022-07-26T18:51:48.726Z,1.50
2022-07-26T18:54:16.459Z,1.95
2022-07-26T18:56:43.517Z,2.35
2022-07-26T18:59:10.680Z,6.53
2022-07-26T19:01:37.911Z,2.55
2022-07-26T19:04:07.277Z,1.75
2022-07-26T19:06:35.377Z,4.88
2022-07-26T19:09:02.109Z,4.13
2022-07-26T19:11:30.345Z,1.52
2022-07-26T19:13:57.387Z,1.77
2022-07-26T19:16:27.102Z,2.17
2022-07-26T19:18:57.172Z,2.13
2022-07-26T19:21:24.571Z,3.05
2022-07-26T19:23:51.359Z,1.80
2022-07-26T19:26:18.292Z,1.10
2022-07-26T19:28:45.190Z,0.73
2022-07-26T19:31:12.169Z,1.08
2022-07-26T19:33:39.035Z,1.48
2022-07-26T19:36:05.984Z,2.92
2022-07-26T19:38:33.088Z,1.45
2022-07-26T19:41:19.945Z,2.47
2022-07-26T19:44:05.622Z,2.47
2022-07-26T19:46:57.317Z,3.22
2022-07-26T19:49:45.173Z,7.05
2022-07-26T19:52:32.421Z,1.42
2022-07-26T19:55:19.583Z,5.68
2022-07-26T19:58:06.751Z,2.15
2022-07-26T20:00:53.756Z,1.80
2022-07-26T20:03:40.891Z,3.45
2022-07-26T20:06:28.251Z,3.28
2022-07-26T20:09:15.532Z,2.58
2022-07-26T20:12:04.127Z,7.03
2022-07-26T20:14:51.325Z,3.25
2022-07-26T20:17:39.693Z,6.90
2022-07-26T20:20:26.848Z,5.10
2022-07-26T20:23:13.928Z,1.35
2022-07-26T20:26:01.398Z,1.48
2022-07-26T20:28:50.325Z,2.00
2022-07-26T20:31:37.477Z,1.88
2022-07-26T20:34:24.557Z,4.50
2022-07-26T20:37:11.783Z,5.10
2022-07-26T20:39:58.902Z,4.53
2022-07-26T20:42:50.093Z,1.58
2022-07-26T20:45:38.346Z,1.77
2022-07-26T20:48:25.450Z,2.92
2022-07-26T20:51:13.270Z,3.67
2022-07-26T20:54:01.008Z,6.55
2022-07-26T20:56:48.100Z,3.47
2022-07-26T20:59:35.537Z,3.58
2022-07-26T21:02:22.747Z,2.88
2022-07-26T21:05:10.552Z,4.53
2022-07-26T21:07:59.550Z,3.63
2022-07-26T21:10:47.837Z,3.90
2022-07-26T21:13:34.978Z,4.60
2022-07-26T21:16:22.161Z,2.75
2022-07-26T21:19:09.723Z,3.58
2022-07-26T21:21:57.843Z,2.72
2022-07-26T21:24:44.917Z,1.85
2022-07-26T21:27:33.598Z,1.35
2022-07-26T21:30:20.795Z,3.13
2022-07-26T21:33:08.147Z,3.33
2022-07-26T21:35:55.246Z,4.32
2022-07-26T21:38:42.709Z,2.42
2022-07-26T21:41:29.836Z,2.55
2022-07-26T21:44:16.939Z,2.47
2022-07-26T21:47:05.779Z,4.32
2022-07-26T21:49:53.352Z,1.55
2022-07-26T21:52:40.633Z,2.22
2022-07-26T21:55:28.652Z,2.72
2022-07-26T21:58:15.726Z,4.78
2022-07-26T22:01:06.878Z,4.25
2022-07-26T22:03:54.386Z,6.80
2022-07-26T22:06:41.473Z,3.88
2022-07-26T22:09:28.746Z,3.30
2022-07-26T22:12:16.193Z,3.13
2022-07-26T22:15:03.467Z,3.35
2022-07-26T22:17:50.590Z,4.40
2022-07-26T22:20:38.064Z,3.17
2022-07-26T22:23:30.439Z,3.25
2022-07-26T22:26:17.777Z,4.13
2022-07-26T22:29:04.924Z,2.65
2022-07-26T22:31:52.057Z,4.10
2022-07-26T22:34:39.153Z,3.90
2022-07-26T22:37:26.231Z,4.55
2022-07-26T22:40:13.394Z,4.38
2022-07-26T22:43:00.752Z,4.85
2022-07-26T22:45:47.908Z,2.83
2022-07-26T22:48:38.399Z,4.82
2022-07-26T22:51:25.865Z,5.63
2022-07-26T22:54:13.009Z,5.38
2022-07-26T22:57:00.195Z,2.40
2022-07-26T22:59:47.315Z,6.47
2022-07-26T23:02:35.522Z,6.07
2022-07-26T23:05:24.942Z,7.93
2022-07-26T23:08:47.869Z,3.20
2022-07-26T23:11:35.133Z,2.90
2022-07-26T23:14:22.301Z,5.45
2022-07-26T23:17:09.538Z,6.22
2022-07-26T23:19:56.828Z,7.93
2022-07-26T23:22:43.935Z,3.40
2022-07-26T23:25:31.059Z,5.10
2022-07-26T23:28:35.850Z,7.00
2022-07-26T23:31:25.010Z,4.75
2022-07-26T23:34:12.432Z,5.00
2022-07-26T23:36:59.551Z,6.57
2022-07-26T23:39:46.598Z,4.32
2022-07-26T23:42:33.726Z,5.03
2022-07-26T23:45:21.452Z,3.13
2022-07-26T23:48:09.194Z,11.00
2022-07-26T23:50:56.271Z,2.78
2022-07-26T23:53:43.489Z,5.00
2022-07-26T23:56:30.532Z,5.43
2022-07-26T23:59:17.724Z,4.13
